Time;durP1;ratioP1;P1;durP2;ratioP2;P2;SDS_P1;SDS_P2;PMS_P1;PMS_P2;Temp;Humidity;BMP_temperature;BMP_pressure;BME280_temperature;BME280_humidity;BME280_pressure;Samples;Min_cycle;Max_cycle;Signal;HPM_P1;HPM_P2
2022/10/28 00:00:49;;;;;;;17.90;8.60;;;;;;;16.45;95.67;101235.31;5070696;28;20207;-61
2022/10/28 00:03:18;;;;;;;15.80;7.97;;;;;;;16.45;95.12;101235.31;5067309;28;20264;-62
2022/10/28 00:05:47;;;;;;;16.27;7.50;;;;;;;16.49;95.06;101234.81;5063565;28;20262;-62
2022/10/28 00:08:14;;;;;;;14.47;7.57;;;;;;;16.52;94.95;101247.03;5059693;28;20199;-62
2022/10/28 00:10:42;;;;;;;14.90;7.80;;;;;;;16.59;94.79;101253.41;5058283;28;20201;-62
2022/10/28 00:13:10;;;;;;;20.10;8.73;;;;;;;16.66;93.72;101251.75;5055830;28;20235;-62
2022/10/28 00:15:37;;;;;;;15.90;7.87;;;;;;;16.71;93.44;101259.28;5050341;28;20234;-63
2022/10/28 00:18:05;;;;;;;16.27;7.73;;;;;;;16.76;92.87;101256.94;5059328;28;20235;-63
2022/10/28 00:20:32;;;;;;;17.07;8.23;;;;;;;16.79;92.42;101257.44;5053080;28;20241;-63
2022/10/28 00:23:01;;;;;;;13.50;8.10;;;;;;;16.82;92.15;101253.56;5060789;28;20250;-63
2022/10/28 00:25:29;;;;;;;18.40;8.27;;;;;;;16.80;92.56;101253.72;5060673;28;20235;-63
2022/10/28 00:27:57;;;;;;;15.53;7.63;;;;;;;16.82;92.90;101251.72;5060559;28;20354;-63
2022/10/28 00:30:24;;;;;;;15.57;9.20;;;;;;;16.79;93.34;101254.75;5061994;28;20770;-63
2022/10/28 00:32:52;;;;;;;16.97;8.07;;;;;;;16.74;94.14;101249.06;5060512;28;20219;-63
2022/10/28 00:35:20;;;;;;;15.00;8.07;;;;;;;16.77;93.90;101253.25;5062862;28;20203;-63
2022/10/28 00:37:47;;;;;;;17.30;8.53;;;;;;;16.78;93.48;101241.53;5056094;28;20723;-63
2022/10/28 00:40:17;;;;;;;15.20;8.20;;;;;;;16.76;94.01;101256.94;5063808;28;20219;-63
2022/10/28 00:42:44;;;;;;;16.13;8.60;;;;;;;16.78;93.57;101261.13;5057266;28;20578;-63
2022/10/28 00:45:12;;;;;;;12.10;7.97;;;;;;;16.81;93.23;101258.06;5058032;28;20201;-63
2022/10/28 00:47:50;;;;;;;14.30;7.47;;;;;;;16.84;93.20;101246.19;5054915;28;20204;-63
2022/10/28 00:50:30;;;;;;;17.10;7.90;;;;;;;16.74;93.94;101240.19;5054079;28;20212;-63
2022/10/28 00:53:01;;;;;;;20.57;8.40;;;;;;;16.66;94.53;101232.16;5061092;28;20681;-63
2022/10/28 00:55:32;;;;;;;18.53;8.10;;;;;;;16.61;94.78;101234.50;5060815;28;20203;-62
2022/10/28 00:58:02;;;;;;;13.57;8.07;;;;;;;16.58;95.33;101241.00;5060980;28;20219;-63
2022/10/28 01:00:30;;;;;;;15.20;7.97;;;;;;;16.64;94.87;101248.38;5062792;28;20216;-63
2022/10/28 01:02:58;;;;;;;18.80;7.80;;;;;;;16.75;94.23;101247.22;5061964;28;20342;-63
2022/10/28 01:05:28;;;;;;;19.77;9.30;;;;;;;16.74;93.82;101238.34;5056405;28;20223;-63
2022/10/28 01:07:59;;;;;;;18.50;8.63;;;;;;;16.68;93.94;101232.84;5054632;28;20227;-63
2022/10/28 01:10:42;;;;;;;15.57;8.67;;;;;;;16.61;94.73;101237.16;5056749;28;20202;-63
2022/10/28 01:13:15;;;;;;;13.80;7.70;;;;;;;16.57;95.02;101244.69;5059093;28;20235;-63
2022/10/28 01:15:51;;;;;;;17.20;8.23;;;;;;;16.66;94.56;101254.41;5053420;28;20226;-63
2022/10/28 01:18:26;;;;;;;17.13;7.63;;;;;;;16.69;94.25;101251.41;5054933;28;20728;-63
2022/10/28 01:21:32;;;;;;;13.20;7.40;;;;;;;16.74;93.73;101250.91;5057339;28;20206;-63
2022/10/28 01:24:15;;;;;;;12.17;7.77;;;;;;;16.77;93.57;101248.72;5059127;28;20216;-63
2022/10/28 01:27:19;;;;;;;13.50;7.67;;;;;;;16.76;93.56;101249.72;5053240;28;20203;-63
2022/10/28 01:30:03;;;;;;;21.60;8.30;;;;;;;16.75;94.00;101247.22;5054488;28;20207;-63
2022/10/28 01:32:40;;;;;;;15.70;8.07;;;;;;;16.73;94.29;101242.03;5068829;28;20223;-63
2022/10/28 01:35:19;;;;;;;22.37;8.10;;;;;;;16.72;94.34;101237.66;5053474;28;20881;-63
2022/10/28 01:37:55;;;;;;;14.87;8.30;;;;;;;16.74;95.21;101240.19;5055134;28;20293;-63
2022/10/28 01:40:33;;;;;;;12.37;7.00;;;;;;;16.67;95.71;101234.66;5053066;28;20206;-63
2022/10/28 01:43:09;;;;;;;15.57;7.10;;;;;;;16.61;96.34;101227.31;5063117;28;20204;-63
2022/10/28 01:45:43;;;;;;;15.13;8.30;;;;;;;16.62;96.76;101231.69;5062956;28;20258;-63
2022/10/28 01:48:15;;;;;;;12.87;7.53;;;;;;;16.59;97.07;101226.63;5058091;28;20684;-63
2022/10/28 01:50:50;;;;;;;18.40;7.70;;;;;;;16.61;97.55;101232.69;5055705;28;20208;-63
2022/10/28 01:53:23;;;;;;;15.17;7.17;;;;;;;16.63;97.13;101230.66;5056869;28;20825;-63
2022/10/28 01:55:55;;;;;;;17.20;7.73;;;;;;;16.66;97.00;101227.63;5060797;28;20618;-63
2022/10/28 01:58:28;;;;;;;15.77;7.67;;;;;;;16.66;97.32;101226.81;5053710;28;20207;-63
2022/10/28 02:00:57;;;;;;;14.13;7.37;;;;;;;16.69;96.92;101235.34;5057829;28;21394;-63
2022/10/28 02:03:27;;;;;;;13.37;7.37;;;;;;;16.73;97.10;101231.31;5053936;28;20239;-63
2022/10/28 02:05:56;;;;;;;15.03;7.17;;;;;;;16.78;96.34;101223.63;5058072;28;20203;-62
2022/10/28 02:08:43;;;;;;;13.27;7.37;;;;;;;16.80;96.20;101224.25;5059368;28;20207;-63
2022/10/28 02:11:25;;;;;;;16.20;8.20;;;;;;;16.71;96.75;101214.56;5060219;28;20234;-63
2022/10/28 02:14:01;;;;;;;14.43;7.10;;;;;;;16.68;97.61;101217.59;5055043;28;20254;-62
2022/10/28 02:16:38;;;;;;;19.00;8.63;;;;;;;16.65;98.05;101217.94;5068068;28;20229;-62
2022/10/28 02:19:16;;;;;;;23.57;7.40;;;;;;;16.59;98.78;101218.59;5066163;28;20211;-62
2022/10/28 02:21:56;;;;;;;15.07;8.00;;;;;;;16.60;99.03;101214.91;5054609;28;20667;-62
2022/10/28 02:24:34;;;;;;;12.40;7.37;;;;;;;16.59;99.24;101205.19;5052061;28;21071;-63
2022/10/28 02:27:11;;;;;;;13.87;6.87;;;;;;;16.57;99.53;101204.53;5069460;28;20731;-63
2022/10/28 02:29:45;;;;;;;15.30;7.33;;;;;;;16.58;99.68;101200.84;5061816;28;20206;-63
2022/10/28 02:32:17;;;;;;;17.43;8.50;;;;;;;16.59;99.45;101194.47;5053713;28;20534;-62
2022/10/28 02:34:49;;;;;;;12.67;7.23;;;;;;;16.60;99.97;101190.81;5050009;28;20224;-62
2022/10/28 02:37:20;;;;;;;18.43;6.80;;;;;;;16.64;99.09;101186.78;5057049;28;20252;-62
2022/10/28 02:39:53;;;;;;;16.93;7.63;;;;;;;16.67;99.05;101188.31;5067975;28;20216;-63
2022/10/28 02:42:23;;;;;;;15.13;7.10;;;;;;;16.68;99.03;101181.94;5065409;28;20203;-63
2022/10/28 02:44:55;;;;;;;12.77;6.30;;;;;;;16.68;98.66;101181.94;5057749;28;20262;-63
2022/10/28 02:47:28;;;;;;;13.00;6.33;;;;;;;16.69;98.94;101183.63;5060121;28;20252;-63
2022/10/28 02:50:01;;;;;;;20.30;6.90;;;;;;;16.69;98.61;101181.78;5055996;28;20624;-63
2022/10/28 02:52:31;;;;;;;14.03;6.27;;;;;;;16.71;98.19;101176.28;5059116;28;20218;-63
2022/10/28 02:55:03;;;;;;;13.07;7.10;;;;;;;16.66;98.78;101171.41;5063046;28;20235;-63
2022/10/28 02:57:33;;;;;;;16.70;6.83;;;;;;;16.59;99.81;101167.72;5062031;28;21145;-63
2022/10/28 03:00:06;;;;;;;21.40;7.13;;;;;;;16.55;100.00;101161.84;5059441;28;20204;-65
2022/10/28 03:02:33;;;;;;;15.43;7.13;;;;;;;16.54;100.00;101148.63;5057504;28;20265;-63
2022/10/28 03:05:03;;;;;;;12.27;7.30;;;;;;;16.51;100.00;101146.31;5056378;28;20204;-62
2022/10/28 03:07:30;;;;;;;14.60;7.73;;;;;;;16.47;100.00;101136.94;5058986;28;20658;-63
2022/10/28 03:09:58;;;;;;;16.00;7.00;;;;;;;16.45;100.00;101142.44;5051733;28;20250;-63
2022/10/28 03:12:25;;;;;;;18.13;7.50;;;;;;;16.46;100.00;101143.28;5055451;28;20293;-63
2022/10/28 03:14:53;;;;;;;17.10;7.70;;;;;;;16.52;100.00;101140.78;5058032;28;20465;-63
2022/10/28 03:17:21;;;;;;;16.97;8.03;;;;;;;16.55;100.00;101145.78;5062685;28;20711;-63
2022/10/28 03:19:48;;;;;;;18.87;7.00;;;;;;;16.61;100.00;101143.44;5058399;28;20211;-63
2022/10/28 03:22:17;;;;;;;13.00;6.60;;;;;;;16.63;100.00;101147.63;5053955;28;20229;-63
2022/10/28 03:24:45;;;;;;;10.80;6.97;;;;;;;16.69;100.00;101157.69;5056705;28;20219;-63
2022/10/28 03:27:12;;;;;;;15.13;6.87;;;;;;;16.73;99.20;101156.31;5055761;28;20269;-62
2022/10/28 03:29:40;;;;;;;12.77;6.70;;;;;;;16.76;98.94;101158.66;5057505;28;20219;-64
2022/10/28 03:32:12;;;;;;;18.30;7.30;;;;;;;16.75;99.16;101164.19;5056254;28;20207;-63
2022/10/28 03:34:40;;;;;;;13.30;7.30;;;;;;;16.80;97.89;101159.97;5056735;28;20224;-63
2022/10/28 03:37:08;;;;;;;18.37;8.10;;;;;;;16.87;96.91;101162.81;5053516;28;20236;-63
2022/10/28 03:39:37;;;;;;;14.57;6.90;;;;;;;16.90;96.38;101160.63;5062226;28;20274;-63
2022/10/28 03:42:04;;;;;;;13.10;7.03;;;;;;;16.83;97.19;101159.66;5063971;28;20216;-62
2022/10/28 03:44:32;;;;;;;15.83;6.93;;;;;;;16.85;96.61;101173.72;5059394;28;20207;-64
2022/10/28 03:47:00;;;;;;;16.50;7.27;;;;;;;16.90;96.27;101165.13;5068593;28;20652;-64
2022/10/28 03:49:27;;;;;;;13.00;6.73;;;;;;;16.89;96.11;101156.25;5062807;28;20223;-64
2022/10/28 03:51:55;;;;;;;13.90;6.83;;;;;;;16.84;96.81;101169.34;5055480;28;20212;-64
2022/10/28 03:54:22;;;;;;;15.37;7.13;;;;;;;16.86;96.20;101163.84;5056088;28;20260;-63
2022/10/28 03:56:51;;;;;;;23.80;6.70;;;;;;;16.82;96.23;101168.69;5057078;28;20211;-63
2022/10/28 03:59:19;;;;;;;16.73;7.07;;;;;;;16.81;96.78;101166.16;5052726;28;20969;-63
2022/10/28 04:01:47;;;;;;;12.77;6.97;;;;;;;16.72;97.54;101160.00;5050098;28;20262;-63
2022/10/28 04:04:15;;;;;;;14.83;7.07;;;;;;;16.70;98.04;101164.72;5053907;28;20209;-63
2022/10/28 04:06:43;;;;;;;14.33;6.67;;;;;;;16.71;97.35;101155.66;5049319;28;20681;-64
2022/10/28 04:09:14;;;;;;;17.20;7.77;;;;;;;16.72;97.18;101162.69;5059083;28;20203;-64
2022/10/28 04:11:41;;;;;;;12.63;7.10;;;;;;;16.73;96.75;101159.00;5055650;28;20633;-63
2022/10/28 04:14:13;;;;;;;14.80;6.97;;;;;;;16.76;96.58;101157.81;5060424;28;20238;-63
2022/10/28 04:16:41;;;;;;;16.07;7.43;;;;;;;16.72;96.68;101151.97;5056366;28;20602;-63
2022/10/28 04:19:08;;;;;;;15.43;7.20;;;;;;;16.71;96.27;101144.94;5057741;28;20826;-63
2022/10/28 04:21:39;;;;;;;15.90;7.53;;;;;;;16.68;96.78;101149.81;5055569;28;20265;-64
2022/10/28 04:24:10;;;;;;;11.20;6.90;;;;;;;16.66;96.75;101151.81;5053658;28;20363;-63
2022/10/28 04:26:38;;;;;;;15.43;6.40;;;;;;;16.67;96.92;101148.13;5053759;28;20197;-62
2022/10/28 04:29:05;;;;;;;21.40;6.57;;;;;;;16.64;97.25;101157.34;5054823;28;20211;-63
2022/10/28 04:31:34;;;;;;;10.97;6.27;;;;;;;16.71;96.60;101155.66;5049834;28;20208;-63
2022/10/28 04:34:05;;;;;;;16.00;7.10;;;;;;;16.74;96.23;101149.13;5057302;28;20229;-62
2022/10/28 04:36:32;;;;;;;17.37;6.87;;;;;;;16.73;95.81;101164.34;5057526;28;20246;-63
2022/10/28 04:39:00;;;;;;;18.60;6.40;;;;;;;16.72;96.18;101168.03;5065059;28;20223;-63
2022/10/28 04:41:27;;;;;;;14.47;6.63;;;;;;;16.74;95.27;101168.72;5064862;28;20210;-63
2022/10/28 04:43:55;;;;;;;16.43;6.10;;;;;;;16.75;95.32;101173.06;5072163;28;20256;-64
2022/10/28 04:46:23;;;;;;;12.97;6.93;;;;;;;16.77;95.08;101159.50;5070079;28;20205;-64
2022/10/28 04:48:52;;;;;;;18.70;7.30;;;;;;;16.68;95.43;101164.03;5068214;28;20786;-63
2022/10/28 04:51:20;;;;;;;14.27;6.13;;;;;;;16.66;95.70;101162.53;5066689;28;20202;-63
2022/10/28 04:53:47;;;;;;;14.67;6.53;;;;;;;16.69;95.51;101171.06;5064357;28;20268;-63
2022/10/28 04:56:15;;;;;;;15.43;6.60;;;;;;;16.70;95.55;101170.06;5071317;28;20289;-63
2022/10/28 04:58:43;;;;;;;16.10;6.97;;;;;;;16.71;94.91;101173.59;5058819;28;20752;-64
2022/10/28 05:01:10;;;;;;;14.93;6.90;;;;;;;16.76;94.45;101173.91;5066953;28;20210;-64
2022/10/28 05:03:38;;;;;;;12.47;6.47;;;;;;;16.75;94.55;101177.56;5062143;28;20208;-63
2022/10/28 05:06:07;;;;;;;14.47;5.80;;;;;;;16.68;95.05;101166.72;5062638;28;20281;-63
2022/10/28 05:08:35;;;;;;;15.23;6.83;;;;;;;16.56;96.20;101168.03;5060079;28;20200;-63
2022/10/28 05:11:03;;;;;;;15.13;6.57;;;;;;;16.50;96.70;101168.72;5059875;28;20358;-64
2022/10/28 05:13:31;;;;;;;12.67;5.87;;;;;;;16.52;96.40;101167.56;5058852;28;20227;-62
2022/10/28 05:15:58;;;;;;;12.47;5.77;;;;;;;16.42;97.15;101160.72;5057599;28;20289;-63
2022/10/28 05:18:26;;;;;;;16.53;7.33;;;;;;;16.36;97.43;101156.03;5055143;28;20215;-63
2022/10/28 05:20:54;;;;;;;13.37;6.50;;;;;;;16.28;98.00;101159.53;5061840;28;20199;-63
2022/10/28 05:23:23;;;;;;;19.70;7.23;;;;;;;16.26;98.24;101147.34;5059634;28;20219;-63
2022/10/28 05:25:56;;;;;;;17.73;6.97;;;;;;;16.23;98.70;101153.03;5053404;28;20238;-63
2022/10/28 05:28:24;;;;;;;14.93;6.90;;;;;;;16.24;99.15;101146.69;5057193;28;20203;-64
2022/10/28 05:30:51;;;;;;;15.43;7.03;;;;;;;16.26;98.42;101140.16;5061082;28;20696;-64
2022/10/28 05:33:19;;;;;;;19.63;7.27;;;;;;;16.20;98.70;101135.47;5053087;28;20249;-64
2022/10/28 05:35:47;;;;;;;13.53;7.10;;;;;;;16.17;99.09;101136.66;5050842;28;20309;-64
2022/10/28 05:38:14;;;;;;;11.23;6.43;;;;;;;16.16;98.73;101131.47;5058185;28;20215;-64
2022/10/28 05:40:43;;;;;;;17.40;7.40;;;;;;;16.09;99.38;101136.66;5057566;28;20349;-63
2022/10/28 05:43:11;;;;;;;16.30;7.17;;;;;;;16.08;99.06;101134.16;5060292;28;20258;-63
2022/10/28 05:45:38;;;;;;;15.20;7.27;;;;;;;16.00;100.00;101135.00;5057308;28;20203;-63
2022/10/28 05:48:07;;;;;;;21.10;8.03;;;;;;;16.00;100.00;101129.63;5058220;28;20232;-63
2022/10/28 05:50:34;;;;;;;16.97;7.40;;;;;;;16.00;100.00;101145.69;5060115;28;20211;-63
2022/10/28 05:53:02;;;;;;;16.07;7.67;;;;;;;16.03;100.00;101136.47;5068500;28;20208;-63
2022/10/28 05:55:30;;;;;;;15.77;6.70;;;;;;;16.08;99.53;101140.34;5057308;28;20289;-63
2022/10/28 05:57:59;;;;;;;18.13;6.47;;;;;;;16.05;99.54;101147.84;5054778;28;20241;-64
2022/10/28 06:00:27;;;;;;;10.97;6.00;;;;;;;16.00;100.00;101145.69;5060919;28;20215;-63
2022/10/28 06:03:02;;;;;;;14.53;6.13;;;;;;;16.04;99.60;101136.31;5059243;28;20204;-63
2022/10/28 06:05:30;;;;;;;14.53;6.90;;;;;;;16.01;99.96;101141.97;5055005;28;20226;-64
2022/10/28 06:07:58;;;;;;;12.03;5.67;;;;;;;16.07;99.52;101144.00;5057303;28;20234;-64
2022/10/28 06:10:25;;;;;;;16.43;6.70;;;;;;;16.09;98.75;101147.38;5053367;28;20678;-63
2022/10/28 06:12:57;;;;;;;17.27;6.50;;;;;;;16.10;99.14;101145.50;5055964;28;20219;-63
2022/10/28 06:15:26;;;;;;;15.27;6.03;;;;;;;16.11;98.87;101152.53;5059414;28;20290;-63
2022/10/28 06:17:54;;;;;;;12.63;6.07;;;;;;;16.10;99.36;101146.34;5067362;28;20207;-63
2022/10/28 06:20:21;;;;;;;18.73;6.87;;;;;;;16.12;99.16;101143.50;5065359;28;20268;-65
2022/10/28 06:22:50;;;;;;;14.43;6.00;;;;;;;16.15;99.16;101149.34;5061096;28;20216;-63
2022/10/28 06:25:19;;;;;;;16.63;6.63;;;;;;;16.19;99.06;101139.97;5066252;28;20257;-63
2022/10/28 06:27:52;;;;;;;14.67;6.00;;;;;;;16.20;99.00;101146.16;5063236;28;20234;-63
2022/10/28 06:30:21;;;;;;;14.53;5.53;;;;;;;16.21;98.95;101153.19;5059874;28;20211;-63
2022/10/28 06:32:50;;;;;;;12.97;6.03;;;;;;;16.21;98.86;101157.72;5061246;28;20211;-63
2022/10/28 06:35:18;;;;;;;11.77;6.00;;;;;;;16.20;99.02;101151.50;5060091;28;20227;-63
2022/10/28 06:37:45;;;;;;;13.70;5.37;;;;;;;16.24;98.21;101158.22;5055870;28;20753;-62
2022/10/28 06:40:13;;;;;;;17.17;6.83;;;;;;;16.25;97.96;101151.88;5055915;28;20204;-63
2022/10/28 06:42:41;;;;;;;15.53;6.27;;;;;;;16.22;97.95;101159.38;5061424;28;20203;-63
2022/10/28 06:45:09;;;;;;;18.30;5.87;;;;;;;16.22;98.54;101159.38;5067451;28;20887;-63
2022/10/28 06:47:37;;;;;;;18.70;6.03;;;;;;;16.24;98.35;101152.88;5061552;28;20211;-62
2022/10/28 06:50:09;;;;;;;16.50;6.17;;;;;;;16.29;98.00;101150.50;5059882;28;20208;-62
2022/10/28 06:52:39;;;;;;;13.77;6.30;;;;;;;16.30;97.29;101146.00;5058946;28;20200;-62
2022/10/28 06:55:07;;;;;;;14.47;5.70;;;;;;;16.33;96.90;101148.34;5064824;28;20217;-62
2022/10/28 06:57:35;;;;;;;11.97;5.70;;;;;;;16.39;96.79;101147.66;5057715;28;20262;-63
2022/10/28 07:00:03;;;;;;;14.70;6.50;;;;;;;16.40;96.28;101146.66;5057347;28;20646;-63
2022/10/28 07:02:31;;;;;;;18.37;6.60;;;;;;;16.44;96.12;101156.03;5056154;28;20645;-63
2022/10/28 07:04:59;;;;;;;12.23;6.10;;;;;;;16.52;95.58;101167.56;5064541;28;20207;-64
2022/10/28 07:07:28;;;;;;;22.17;6.73;;;;;;;16.59;95.00;101166.88;5069245;28;20211;-63
2022/10/28 07:09:55;;;;;;;20.33;6.10;;;;;;;16.61;94.17;101164.88;5061883;28;20270;-64
2022/10/28 07:12:23;;;;;;;16.50;6.53;;;;;;;16.59;94.60;101170.38;5055103;28;20211;-64
2022/10/28 07:14:51;;;;;;;21.10;7.27;;;;;;;16.59;94.76;101167.72;5050700;28;20231;-63
2022/10/28 07:17:18;;;;;;;17.87;6.43;;;;;;;16.61;94.09;101171.09;5059806;28;20220;-63
2022/10/28 07:19:46;;;;;;;13.20;6.37;;;;;;;16.63;94.37;101169.06;5056842;28;20669;-63
2022/10/28 07:22:16;;;;;;;14.10;6.37;;;;;;;16.67;93.25;101175.75;5060808;28;20207;-63
2022/10/28 07:24:45;;;;;;;16.90;6.20;;;;;;;16.64;93.01;101175.25;5064947;28;20904;-62
2022/10/28 07:27:17;;;;;;;13.63;6.70;;;;;;;16.56;93.49;101181.44;5058080;28;20200;-62
2022/10/28 07:29:45;;;;;;;15.90;6.23;;;;;;;16.49;94.51;101186.63;5062456;28;20255;-63
2022/10/28 07:32:12;;;;;;;14.60;5.57;;;;;;;16.50;94.26;101184.78;5064916;28;20220;-62
2022/10/28 07:34:40;;;;;;;17.97;5.80;;;;;;;16.49;94.44;101178.59;5067566;28;20199;-64
2022/10/28 07:37:14;;;;;;;13.47;5.57;;;;;;;16.52;93.88;101174.75;5056447;28;20224;-64
2022/10/28 07:39:43;;;;;;;12.17;5.50;;;;;;;16.48;93.69;101173.41;5064942;28;20289;-63
2022/10/28 07:42:12;;;;;;;16.23;5.27;;;;;;;16.52;93.56;101177.44;5064326;28;20660;-64
2022/10/28 07:44:41;;;;;;;13.10;5.37;;;;;;;16.53;93.54;101165.72;5064910;28;20199;-63
2022/10/28 07:47:09;;;;;;;14.17;5.93;;;;;;;16.58;93.84;101182.09;5063260;28;20207;-63
2022/10/28 07:49:37;;;;;;;16.70;6.53;;;;;;;16.62;93.37;101193.34;5060723;28;20208;-63
2022/10/28 07:52:04;;;;;;;15.33;6.33;;;;;;;16.62;93.62;101194.19;5063619;28;20208;-63
2022/10/28 07:54:32;;;;;;;12.27;5.40;;;;;;;16.65;93.60;101191.16;5059725;28;20207;-63
2022/10/28 07:57:00;;;;;;;17.03;6.63;;;;;;;16.68;92.77;101195.34;5062833;28;20827;-62
2022/10/28 07:59:29;;;;;;;14.93;6.10;;;;;;;16.63;93.04;101190.47;5060268;28;20342;-62
2022/10/28 08:01:56;;;;;;;13.53;5.47;;;;;;;16.66;92.75;101192.81;5061481;28;20204;-63
2022/10/28 08:04:24;;;;;;;11.77;5.17;;;;;;;16.67;91.89;101191.81;5054967;28;20384;-64
2022/10/28 08:06:51;;;;;;;13.47;6.00;;;;;;;16.68;92.02;101190.81;5064035;28;20200;-62
2022/10/28 08:09:24;;;;;;;12.93;5.57;;;;;;;16.74;90.97;101187.47;5059545;28;20495;-62
2022/10/28 08:11:55;;;;;;;12.40;5.07;;;;;;;16.73;91.08;101192.97;5058031;28;20779;-64
2022/10/28 08:14:23;;;;;;;17.03;6.10;;;;;;;16.77;90.84;101195.16;5059720;28;20696;-63
2022/10/28 08:16:52;;;;;;;16.40;5.60;;;;;;;16.91;90.08;101197.13;5065760;28;20228;-63
2022/10/28 08:19:20;;;;;;;14.73;5.70;;;;;;;17.06;88.60;101199.09;5063593;28;20206;-62
2022/10/28 08:21:47;;;;;;;22.93;7.03;;;;;;;17.21;87.38;101189.31;5062625;28;20204;-63
2022/10/28 08:24:15;;;;;;;16.97;5.93;;;;;;;17.19;87.21;101197.53;5065966;28;20231;-63
2022/10/28 08:26:43;;;;;;;15.60;5.60;;;;;;;17.25;86.24;101188.78;5064230;28;20221;-62
2022/10/28 08:29:11;;;;;;;17.17;5.60;;;;;;;17.23;86.44;101188.16;5062734;28;20211;-63
2022/10/28 08:31:38;;;;;;;12.07;4.73;;;;;;;17.28;86.57;101192.97;5057874;28;20211;-64
2022/10/28 08:34:08;;;;;;;10.10;5.13;;;;;;;17.33;86.29;101193.28;5065562;28;20222;-63
2022/10/28 08:36:36;;;;;;;15.13;5.37;;;;;;;17.36;86.62;101198.31;5059065;28;20268;-64
2022/10/28 08:39:04;;;;;;;20.23;5.20;;;;;;;17.42;86.50;101194.91;5054651;28;20208;-62
2022/10/28 08:41:37;;;;;;;14.03;5.53;;;;;;;17.51;86.50;101193.03;5055956;28;20499;-63
2022/10/28 08:44:41;;;;;;;15.33;5.10;;;;;;;17.68;84.71;101187.41;5061578;28;20220;-64
2022/10/28 08:47:33;;;;;;;14.80;5.00;;;;;;;17.70;83.77;101175.69;5059884;28;20206;-64
2022/10/28 08:50:11;;;;;;;14.03;4.83;;;;;;;17.76;84.48;101183.03;5068239;28;20203;-64
2022/10/28 08:52:43;;;;;;;9.43;5.27;;;;;;;17.94;84.43;101186.28;5060543;28;20322;-64
2022/10/28 08:55:15;;;;;;;16.73;5.13;;;;;;;18.13;82.26;101179.56;5069654;28;20275;-65
2022/10/28 08:57:46;;;;;;;18.07;6.43;;;;;;;18.13;82.54;101180.41;5052273;28;20290;-63
2022/10/28 09:00:22;;;;;;;14.47;5.43;;;;;;;18.20;81.23;101189.44;5058271;28;20261;-65
2022/10/28 09:03:16;;;;;;;13.27;5.03;;;;;;;18.14;81.25;101181.25;5048854;28;20227;-64
2022/10/28 09:05:48;;;;;;;14.70;5.07;;;;;;;18.06;81.39;101190.19;5058439;28;20641;-64
2022/10/28 09:08:22;;;;;;;14.17;5.43;;;;;;;18.05;81.33;101189.34;5064942;28;20337;-65
2022/10/28 09:11:20;;;;;;;12.70;5.47;;;;;;;18.04;81.08;101189.53;5056078;28;20200;-64
2022/10/28 09:14:08;;;;;;;13.73;4.90;;;;;;;18.04;81.03;101194.91;5057039;28;20231;-63
2022/10/28 09:16:44;;;;;;;9.67;4.90;;;;;;;17.96;81.74;101195.78;5060792;28;20224;-65
2022/10/28 09:19:19;;;;;;;14.23;5.33;;;;;;;17.93;82.43;101192.66;5057771;28;20272;-64
2022/10/28 09:21:59;;;;;;;14.93;5.17;;;;;;;17.91;82.55;101187.47;5053293;28;20204;-62
2022/10/28 09:24:43;;;;;;;19.67;6.00;;;;;;;18.57;81.19;101190.44;5053906;28;20231;-62
2022/10/28 09:27:18;;;;;;;14.57;5.20;;;;;;;20.09;73.62;101186.00;5061496;28;20194;-62
2022/10/28 09:29:57;;;;;;;15.93;5.67;;;;;;;21.91;64.70;101180.22;5063340;28;20207;-64
2022/10/28 09:32:32;;;;;;;10.37;4.93;;;;;;;22.03;62.83;101175.91;5062123;28;20595;-62
2022/10/28 09:35:05;;;;;;;11.87;5.40;;;;;;;21.88;62.34;101177.13;5056336;28;20614;-63
2022/10/28 09:37:38;;;;;;;15.77;5.30;;;;;;;21.66;63.43;101171.03;5061251;28;20216;-65
2022/10/28 09:40:15;;;;;;;10.43;4.93;;;;;;;21.55;63.54;101168.94;5057131;28;20265;-64
2022/10/28 09:42:51;;;;;;;15.00;5.40;;;;;;;21.21;64.39;101186.84;5050812;28;20747;-63
2022/10/28 09:45:23;;;;;;;12.10;5.10;;;;;;;21.05;65.28;101181.75;5059715;28;20207;-63
2022/10/28 09:47:56;;;;;;;15.13;4.80;;;;;;;20.89;65.84;101182.09;5056440;28;20199;-62
2022/10/28 09:50:29;;;;;;;13.00;4.60;;;;;;;20.81;65.98;101196.56;5060616;28;21460;-63
2022/10/28 09:53:04;;;;;;;9.20;4.50;;;;;;;20.69;67.22;101205.38;5061275;28;20207;-62
2022/10/28 09:55:32;;;;;;;15.83;5.07;;;;;;;20.59;67.83;101198.47;5066977;28;20207;-63
2022/10/28 09:58:00;;;;;;;17.53;5.23;;;;;;;20.59;68.41;101193.06;5060749;28;20285;-63
2022/10/28 10:00:27;;;;;;;15.03;4.87;;;;;;;20.58;68.73;101194.09;5053899;28;21865;-64
2022/10/28 10:02:57;;;;;;;17.80;5.37;;;;;;;20.71;68.15;101195.22;5050291;28;20216;-64
2022/10/28 10:05:26;;;;;;;12.13;4.00;;;;;;;20.87;67.59;101190.38;5055569;28;20222;-63
2022/10/28 10:07:57;;;;;;;12.47;5.10;;;;;;;21.09;66.57;101185.72;5057762;28;20272;-63
2022/10/28 10:10:30;;;;;;;9.40;4.43;;;;;;;21.25;65.65;101193.53;5053955;28;21021;-64
2022/10/28 10:13:02;;;;;;;19.40;4.80;;;;;;;21.32;65.15;101180.88;5050604;28;20220;-63
2022/10/28 10:15:33;;;;;;;11.27;4.77;;;;;;;22.56;61.56;101186.72;5059925;28;20870;-64
2022/10/28 10:18:03;;;;;;;13.07;5.10;;;;;;;23.38;57.42;101186.16;5062090;28;20230;-62
2022/10/28 10:20:47;;;;;;;12.53;4.93;;;;;;;24.04;55.58;101180.38;5056331;28;20649;-63
2022/10/28 10:23:23;;;;;;;15.38;5.10;;;;;;;24.03;55.74;101184.13;5056807;28;20217;-64
2022/10/28 10:25:58;;;;;;;15.43;4.72;;;;;;;23.85;55.41;101181.31;5063683;28;20274;-63
2022/10/28 10:28:27;;;;;;;9.93;4.22;;;;;;;23.36;57.73;101172.00;5054398;28;20625;-62
2022/10/28 10:30:57;;;;;;;21.00;4.63;;;;;;;23.21;57.63;101174.16;5057837;28;20242;-63
2022/10/28 10:33:28;;;;;;;17.80;4.90;;;;;;;22.80;59.30;101171.75;5057010;28;20245;-62
2022/10/28 10:35:58;;;;;;;14.98;5.50;;;;;;;22.72;58.53;101175.47;5053202;28;20200;-62
2022/10/28 10:38:28;;;;;;;10.85;4.53;;;;;;;22.45;59.37;101179.25;5061772;28;20219;-63
2022/10/28 10:40:58;;;;;;;12.63;4.95;;;;;;;22.42;60.03;101169.72;5055425;28;20208;-63
2022/10/28 10:43:31;;;;;;;11.95;4.85;;;;;;;22.86;58.28;101169.06;5067828;28;20652;-63
2022/10/28 10:46:05;;;;;;;10.13;4.30;;;;;;;22.89;58.18;101175.88;5070478;28;20657;-64
2022/10/28 10:48:35;;;;;;;15.48;5.53;;;;;;;23.43;57.48;101170.06;5063221;28;20699;-63
2022/10/28 10:51:08;;;;;;;11.15;5.13;;;;;;;23.51;56.94;101164.44;5063691;28;20208;-63
2022/10/28 10:53:37;;;;;;;13.82;4.70;;;;;;;23.34;57.16;101160.53;5052828;28;20616;-63
2022/10/28 10:56:09;;;;;;;8.32;4.60;;;;;;;23.42;57.17;101163.00;5050158;28;20211;-63
2022/10/28 10:58:40;;;;;;;14.18;4.63;;;;;;;23.68;56.97;101155.81;5050820;28;20246;-64
2022/10/28 11:01:08;;;;;;;14.45;5.05;;;;;;;24.52;54.63;101160.84;5063505;28;20210;-63
2022/10/28 11:03:39;;;;;;;13.55;4.72;;;;;;;25.03;53.42;101153.22;5055834;28;20662;-62
2022/10/28 11:06:18;;;;;;;17.85;5.07;;;;;;;25.44;51.63;101138.91;5066597;28;20265;-63
2022/10/28 11:08:57;;;;;;;14.77;4.78;;;;;;;26.09;49.91;101141.72;5052587;28;20697;-63
2022/10/28 11:11:34;;;;;;;20.33;4.75;;;;;;;26.79;47.03;101140.94;5048890;28;20211;-63
2022/10/28 11:14:05;;;;;;;12.18;4.50;;;;;;;27.73;44.77;101131.44;5055760;28;20235;-62
2022/10/28 11:16:33;;;;;;;17.02;4.60;;;;;;;28.93;42.25;101130.06;5055947;28;20204;-64
2022/10/28 11:19:19;;;;;;;13.13;4.88;;;;;;;29.25;41.24;101122.81;5061761;28;20252;-63
2022/10/28 11:21:58;;;;;;;11.77;3.63;;;;;;;29.32;40.27;101117.97;5055788;28;20227;-63
2022/10/28 11:24:56;;;;;;;11.90;4.32;;;;;;;28.37;42.12;101121.06;5050369;28;20235;-62
2022/10/28 11:27:38;;;;;;;15.32;4.50;;;;;;;27.94;42.83;101110.81;5054306;28;20212;-63
2022/10/28 11:30:18;;;;;;;9.65;4.10;;;;;;;27.60;43.57;101116.22;5057457;28;20274;-63
2022/10/28 11:32:59;;;;;;;11.75;4.47;;;;;;;28.23;43.51;101111.59;5058980;28;20208;-64
2022/10/28 11:35:53;;;;;;;10.60;4.00;;;;;;;27.86;43.70;101106.59;5056326;28;20207;-63